KPSF/PSF METAR and TAF weather

Enter ICAO airport designator
Station Type Date Time Source
KPSF METAR 2021/05/17 22:54 UTC NOAA

KPSF 172254Z AUTO 15010KT 10SM BKN090 21/05 A3022 RMK AO2 SLP219 T02060050


Station Type Date Time Source
KPSF Decoded METAR 2021/05/17 22:54 UTC NOAA

PITTSFIELD MUNICIPAL AIRPORT , MA, United States (KPSF) 42-26N 073-17W 355M
May 17, 2021 - 06:54 PM EDT / 2021.05.17 2254 UTC
Wind: from the SSE (150 degrees) at 12 MPH (10 KT):0
Visibility: 10 mile(s):0
Sky conditions: mostly cloudy
Temperature: 69.1 F (20.6 C)
Dew Point: 41.0 F (5.0 C)
Relative Humidity: 35%
Pressure (altimeter): 30.22 in. Hg (1023 hPa)
ob: KPSF 172254Z AUTO 15010KT 10SM BKN090 21/05 A3022 RMK AO2 SLP219 T02060050
cycle: 23

Station Type Date Time Source
KPSF TAF 2021/05/17 18:24 UTC NOAA

TAF KPSF 171723Z 1718/1818 28005KT P6SM VCSH SCT050 BKN080
FM172100 24005KT P6SM SCT070
FM180000 VRB03KT P6SM SCT060 BKN150
FM181500 28009KT P6SM SCT080

Example: see airport list